Time;durP1;ratioP1;P1;durP2;ratioP2;P2;SDS_P1;SDS_P2;PMS_P1;PMS_P2;Temp;Humidity;BMP_temperature;BMP_pressure;BME280_temperature;BME280_humidity;BME280_pressure;Samples;Min_cycle;Max_cycle;Signal;HPM_P1;HPM_P2
2023/05/02 00:01:53;;;;;;;9.45;5.78;;;;;;;7.93;100.00;98904.84;5034492;28;20539;-61
2023/05/02 00:04:18;;;;;;;10.00;5.80;;;;;;;7.88;100.00;98896.47;5040716;28;20139;-62
2023/05/02 00:06:45;;;;;;;9.75;6.38;;;;;;;7.74;100.00;98899.97;5037278;28;20033;-62
2023/05/02 00:09:11;;;;;;;13.13;6.30;;;;;;;7.62;100.00;98900.44;5045190;28;20029;-62
2023/05/02 00:11:36;;;;;;;14.52;8.38;;;;;;;7.49;100.00;98892.09;5046120;28;20024;-61
2023/05/02 00:14:02;;;;;;;15.32;8.27;;;;;;;7.43;100.00;98892.84;5038644;28;20472;-61
2023/05/02 00:16:27;;;;;;;13.32;7.90;;;;;;;7.35;100.00;98907.19;5025950;28;20033;-62
2023/05/02 00:18:52;;;;;;;13.05;7.30;;;;;;;7.33;100.00;98903.00;5026107;28;20051;-61
2023/05/02 00:21:18;;;;;;;11.63;7.13;;;;;;;7.34;100.00;98905.53;5040950;28;20021;-62
2023/05/02 00:23:43;;;;;;;9.52;6.00;;;;;;;7.29;100.00;98902.56;5037784;28;20078;-61
2023/05/02 00:26:09;;;;;;;11.30;6.80;;;;;;;7.29;100.00;98909.78;5032740;28;20499;-61
2023/05/02 00:28:35;;;;;;;11.40;6.15;;;;;;;7.27;100.00;98909.13;5025658;28;20380;-61
2023/05/02 00:31:01;;;;;;;10.02;6.10;;;;;;;7.09;100.00;98902.19;5041633;28;20112;-61
2023/05/02 00:33:26;;;;;;;9.73;6.20;;;;;;;7.11;100.00;98915.47;5035417;28;20025;-61
2023/05/02 00:35:52;;;;;;;11.75;6.28;;;;;;;7.15;100.00;98914.94;5042713;28;20083;-61
2023/05/02 00:38:17;;;;;;;10.32;5.97;;;;;;;7.11;100.00;98913.59;5047093;28;20122;-60
2023/05/02 00:40:47;;;;;;;10.73;6.50;;;;;;;7.00;100.00;98911.34;5036135;28;20059;-60
2023/05/02 00:43:14;;;;;;;10.68;7.10;;;;;;;6.94;100.00;98912.88;5031579;28;20499;-60
2023/05/02 00:45:42;;;;;;;14.10;8.20;;;;;;;6.91;100.00;98917.75;5030467;28;20032;-60
2023/05/02 00:48:08;;;;;;;10.35;6.63;;;;;;;6.89;100.00;98917.09;5028977;28;20029;-60
2023/05/02 00:50:39;;;;;;;10.55;6.65;;;;;;;6.80;100.00;98919.81;5041266;28;20028;-61
2023/05/02 00:53:06;;;;;;;10.43;7.10;;;;;;;6.84;100.00;98908.72;5046786;28;20021;-61
2023/05/02 00:55:34;;;;;;;10.80;6.13;;;;;;;6.83;100.00;98918.63;5039881;28;20029;-60
2023/05/02 00:58:09;;;;;;;10.82;6.68;;;;;;;6.84;100.00;98925.72;5031014;28;20029;-60
2023/05/02 01:01:15;;;;;;;9.65;6.90;;;;;;;6.83;100.00;98921.31;5040723;28;20480;-60
2023/05/02 01:03:54;;;;;;;10.75;6.93;;;;;;;6.83;100.00;98924.03;5009734;28;20095;-60
2023/05/02 01:06:22;;;;;;;12.27;6.85;;;;;;;6.77;100.00;98925.56;5030314;28;20025;-60
2023/05/02 01:08:59;;;;;;;10.73;7.03;;;;;;;6.72;100.00;98919.88;5033655;28;20029;-60
2023/05/02 01:11:37;;;;;;;10.23;6.75;;;;;;;6.89;100.00;98927.84;5040952;28;20036;-60
2023/05/02 01:14:04;;;;;;;10.77;6.82;;;;;;;6.86;100.00;98937.09;5036366;28;20029;-62
2023/05/02 01:16:32;;;;;;;10.55;6.45;;;;;;;6.80;100.00;98925.22;5031687;28;20028;-59
2023/05/02 01:19:00;;;;;;;9.68;6.55;;;;;;;6.77;100.00;98919.34;5041395;28;20038;-61
2023/05/02 01:21:27;;;;;;;12.43;7.13;;;;;;;6.80;100.00;98927.06;5053159;28;20028;-61
2023/05/02 01:24:08;;;;;;;14.68;6.97;;;;;;;6.77;100.00;98924.72;5034511;28;20021;-61
2023/05/02 01:26:43;;;;;;;9.80;6.10;;;;;;;6.75;100.00;98927.59;5029401;28;20049;-60
2023/05/02 01:29:10;;;;;;;10.55;6.55;;;;;;;6.75;100.00;98926.75;5037806;28;20536;-61
2023/05/02 01:31:42;;;;;;;11.15;6.70;;;;;;;6.70;100.00;98932.66;5040066;28;20384;-61
2023/05/02 01:34:10;;;;;;;11.68;6.68;;;;;;;6.67;100.00;98933.00;5039831;28;20025;-60
2023/05/02 01:36:41;;;;;;;13.05;7.32;;;;;;;6.69;100.00;98933.66;5045523;28;20845;-60
2023/05/02 01:39:09;;;;;;;12.50;6.93;;;;;;;6.70;100.00;98932.66;5045707;28;20017;-60
2023/05/02 01:41:36;;;;;;;13.90;6.95;;;;;;;6.67;100.00;98934.88;5039831;28;20393;-60
2023/05/02 01:44:03;;;;;;;10.25;7.05;;;;;;;6.75;100.00;98935.66;5052702;28;20079;-60
2023/05/02 01:46:35;;;;;;;15.80;7.50;;;;;;;6.61;100.00;98936.41;5030669;28;20491;-60
2023/05/02 01:49:06;;;;;;;9.63;6.72;;;;;;;6.71;100.00;98947.78;5037067;28;20493;-60
2023/05/02 01:51:34;;;;;;;11.25;7.07;;;;;;;6.62;100.00;98959.56;5034461;28;20036;-60
2023/05/02 01:54:06;;;;;;;13.73;6.85;;;;;;;6.62;100.00;98948.81;5049907;28;20025;-60
2023/05/02 01:56:35;;;;;;;10.75;7.07;;;;;;;6.57;100.00;98957.41;5034828;28;20029;-60
2023/05/02 01:59:04;;;;;;;13.93;7.45;;;;;;;6.62;100.00;98959.56;5033240;28;20036;-60
2023/05/02 02:01:29;;;;;;;18.98;8.32;;;;;;;6.65;100.00;98955.69;5034088;28;20025;-60
2023/05/02 02:03:57;;;;;;;16.15;8.93;;;;;;;6.69;100.00;98952.50;5043892;28;20031;-60
2023/05/02 02:06:22;;;;;;;11.35;7.60;;;;;;;6.62;100.00;98964.13;5037843;28;20076;-60
2023/05/02 02:08:49;;;;;;;11.25;7.38;;;;;;;6.61;100.00;98957.91;5041948;28;20468;-60
2023/05/02 02:11:21;;;;;;;14.90;8.82;;;;;;;6.55;100.00;98964.00;5034952;28;20017;-60
2023/05/02 02:13:49;;;;;;;14.70;8.43;;;;;;;6.62;100.00;98969.50;5031159;28;20032;-60
2023/05/02 02:16:23;;;;;;;13.43;8.02;;;;;;;6.51;100.00;98976.09;5030182;28;20171;-60
2023/05/02 02:18:51;;;;;;;12.68;7.93;;;;;;;6.54;100.00;98978.44;5050021;28;20070;-60
2023/05/02 02:21:19;;;;;;;15.60;7.97;;;;;;;6.48;100.00;98979.13;5029567;28;20120;-60
2023/05/02 02:23:47;;;;;;;15.90;8.80;;;;;;;6.49;100.00;98987.00;5046218;28;20017;-60
2023/05/02 02:26:14;;;;;;;13.82;8.18;;;;;;;6.46;100.00;98986.50;5034891;28;20025;-61
2023/05/02 02:28:39;;;;;;;19.48;9.18;;;;;;;6.40;100.00;98997.97;5049985;28;20492;-61
2023/05/02 02:31:05;;;;;;;16.85;9.57;;;;;;;6.34;100.00;98988.72;5033127;28;20154;-60
2023/05/02 02:33:31;;;;;;;12.90;8.32;;;;;;;6.33;100.00;99001.31;5046189;28;20413;-60
2023/05/02 02:36:29;;;;;;;17.42;9.82;;;;;;;6.32;100.00;99007.72;5037004;28;20033;-61
2023/05/02 02:39:06;;;;;;;15.30;8.75;;;;;;;6.40;100.00;99009.53;5035754;28;20017;-60
2023/05/02 02:41:57;;;;;;;18.92;9.45;;;;;;;6.32;100.00;99007.72;5051866;28;20032;-61
2023/05/02 02:44:51;;;;;;;18.15;9.38;;;;;;;6.20;100.00;99005.56;5046115;28;20079;-61
2023/05/02 02:47:30;;;;;;;15.57;8.88;;;;;;;6.21;100.00;99015.28;5048052;28;20029;-60
2023/05/02 02:50:15;;;;;;;20.33;10.93;;;;;;;6.24;100.00;99017.66;5041446;28;20025;-60
2023/05/02 02:52:54;;;;;;;18.65;11.07;;;;;;;6.29;100.00;99015.28;5026770;28;20029;-60
2023/05/02 02:55:52;;;;;;;21.63;11.65;;;;;;;6.27;100.00;99028.88;5037775;28;20033;-60
2023/05/02 02:58:42;;;;;;;14.82;9.55;;;;;;;6.32;100.00;99023.84;5040676;28;20029;-61
2023/05/02 03:01:15;;;;;;;18.42;10.55;;;;;;;6.34;100.00;99037.94;5053627;28;20021;-61
2023/05/02 03:03:43;;;;;;;17.75;11.50;;;;;;;6.42;100.00;99039.78;5031548;28;20025;-60
2023/05/02 03:06:08;;;;;;;18.30;10.27;;;;;;;6.53;100.00;99036.72;5038612;28;20480;-60
2023/05/02 03:08:41;;;;;;;22.05;11.13;;;;;;;6.56;100.00;99047.13;5033601;28;20029;-60
2023/05/02 03:11:08;;;;;;;18.08;10.25;;;;;;;6.67;100.00;99048.63;5042927;28;20104;-60
2023/05/02 03:13:34;;;;;;;18.52;10.75;;;;;;;6.70;100.00;99050.13;5036518;28;20028;-60
2023/05/02 03:16:32;;;;;;;20.08;11.20;;;;;;;6.76;100.00;99052.97;5046846;28;20480;-60
2023/05/02 03:18:58;;;;;;;20.83;10.30;;;;;;;6.77;100.00;99060.00;5027096;28;20037;-61
2023/05/02 03:21:23;;;;;;;16.15;10.18;;;;;;;6.76;100.00;99052.13;5033971;28;20025;-61
2023/05/02 03:26:16;;;;;;;14.35;9.55;;;;;;;6.70;100.00;99058.19;4990350;28;20552;-71
2023/05/02 03:28:45;;;;;;;16.50;9.30;;;;;;;6.76;100.00;99052.97;4979956;28;20026;-71
2023/05/02 03:31:11;;;;;;;13.75;8.65;;;;;;;6.80;100.00;99064.22;4979184;28;20429;-71
2023/05/02 03:33:36;;;;;;;18.35;9.30;;;;;;;6.93;100.00;99067.19;4985567;28;20018;-71
2023/05/02 03:36:02;;;;;;;14.55;8.40;;;;;;;6.95;100.00;99065.16;4970198;28;20030;-71
2023/05/02 03:38:29;;;;;;;14.55;8.50;;;;;;;7.08;100.00;99066.47;4974221;28;20023;-69
2023/05/02 03:40:57;;;;;;;13.10;7.88;;;;;;;6.99;100.00;99071.03;4977255;28;20473;-68
2023/05/02 03:43:23;;;;;;;13.48;7.72;;;;;;;6.94;100.00;99060.81;4998035;28;20122;-68
2023/05/02 03:45:48;;;;;;;13.98;8.52;;;;;;;7.00;100.00;99060.13;4969021;28;20018;-67
2023/05/02 03:48:14;;;;;;;12.95;7.30;;;;;;;6.97;100.00;99070.38;4999965;28;20026;-67
2023/05/02 03:50:39;;;;;;;14.52;7.95;;;;;;;6.97;100.00;99075.78;4974785;28;20030;-67
2023/05/02 03:53:06;;;;;;;16.30;8.85;;;;;;;7.04;100.00;99079.41;4991281;28;20030;-67
2023/05/02 03:55:32;;;;;;;15.15;8.25;;;;;;;7.09;100.00;99073.53;4990286;28;20482;-67
2023/05/02 03:57:57;;;;;;;15.23;8.88;;;;;;;7.07;100.00;99076.38;4996652;28;20041;-70
2023/05/02 04:00:23;;;;;;;14.07;8.88;;;;;;;7.03;100.00;99080.44;4996711;28;20041;-71
2023/05/02 04:02:49;;;;;;;15.00;8.60;;;;;;;7.08;100.00;99077.25;4976232;28;20038;-71
2023/05/02 04:05:14;;;;;;;13.60;8.70;;;;;;;7.20;100.00;99079.38;4973593;28;20029;-71
2023/05/02 04:07:40;;;;;;;12.98;7.90;;;;;;;7.26;100.00;99085.91;4975608;28;20058;-70
2023/05/02 04:10:14;;;;;;;10.60;7.18;;;;;;;7.25;100.00;99090.44;4978106;28;20096;-71
2023/05/02 04:12:42;;;;;;;11.55;7.13;;;;;;;7.30;100.00;99087.22;4977127;28;20026;-71
2023/05/02 04:15:09;;;;;;;11.43;7.60;;;;;;;7.28;100.00;99088.41;4998801;28;20034;-66
2023/05/02 04:17:35;;;;;;;14.85;7.57;;;;;;;7.36;100.00;99089.22;4993360;28;20026;-66
2023/05/02 04:20:00;;;;;;;13.20;7.88;;;;;;;7.32;100.00;99082.50;4977961;28;20081;-67
2023/05/02 04:22:26;;;;;;;9.98;6.63;;;;;;;7.27;100.00;99076.81;4979858;28;20109;-66
2023/05/02 04:24:52;;;;;;;9.43;6.65;;;;;;;7.20;100.00;99092.84;4999111;28;20030;-66
2023/05/02 04:27:20;;;;;;;12.00;7.03;;;;;;;7.21;100.00;99082.91;5015127;22;20022;-70
2023/05/02 04:32:17;;;;;;;10.30;6.53;;;;;;;7.22;100.00;99079.19;5032189;22;20057;-76
2023/05/02 04:34:42;;;;;;;18.45;8.55;;;;;;;7.17;100.00;99071.63;5028202;28;20132;-77
2023/05/02 04:37:07;;;;;;;13.48;8.27;;;;;;;7.26;100.00;99080.53;5014179;28;20025;-77
2023/05/02 04:39:33;;;;;;;13.43;8.15;;;;;;;7.18;100.00;99067.94;5016663;28;20032;-74
2023/05/02 04:41:59;;;;;;;14.95;8.43;;;;;;;7.24;100.00;99072.63;5031649;28;20030;-73
2023/05/02 04:44:25;;;;;;;13.45;7.65;;;;;;;7.33;100.00;99091.41;5025314;28;20022;-75
2023/05/02 04:46:50;;;;;;;10.82;7.15;;;;;;;7.50;100.00;99095.72;5029415;28;20026;-76
2023/05/02 04:49:16;;;;;;;14.55;8.32;;;;;;;7.57;100.00;99087.75;5008659;28;20164;-73
2023/05/02 04:51:41;;;;;;;10.05;7.18;;;;;;;7.62;100.00;99097.00;4989861;28;20030;-75
2023/05/02 04:54:06;;;;;;;9.38;6.32;;;;;;;7.73;100.00;99090.38;4989345;28;20104;-75
2023/05/02 04:56:32;;;;;;;13.35;7.22;;;;;;;7.83;100.00;99093.66;5004319;28;20100;-76
2023/05/02 04:58:57;;;;;;;11.70;6.82;;;;;;;7.98;100.00;99101.78;5005615;28;20468;-75
2023/05/02 05:01:26;;;;;;;9.75;6.60;;;;;;;8.02;100.00;99107.69;5015486;28;20107;-76
2023/05/02 05:03:52;;;;;;;12.02;7.30;;;;;;;7.95;100.00;99087.84;5010433;28;20034;-77
2023/05/02 05:06:18;;;;;;;11.30;7.18;;;;;;;8.12;100.00;99113.66;5017023;28;20076;-74
2023/05/02 05:08:44;;;;;;;10.00;6.82;;;;;;;8.19;100.00;99113.78;5008054;28;20044;-75
2023/05/02 05:11:10;;;;;;;10.98;7.30;;;;;;;8.27;100.00;99135.28;5012573;28;20116;-74
2023/05/02 05:13:35;;;;;;;10.77;7.30;;;;;;;8.26;100.00;99131.75;5013596;28;20448;-73
2023/05/02 05:16:01;;;;;;;10.93;7.43;;;;;;;8.24;100.00;99131.06;4996293;28;20038;-75
2023/05/02 05:18:26;;;;;;;14.25;7.18;;;;;;;8.39;100.00;99146.47;5002598;28;20021;-74
2023/05/02 05:20:51;;;;;;;12.77;7.97;;;;;;;8.48;100.00;99146.25;4993323;28;20053;-74
2023/05/02 05:23:17;;;;;;;12.27;8.15;;;;;;;8.52;100.00;99146.75;5004423;28;20040;-75
2023/05/02 05:25:42;;;;;;;16.17;8.48;;;;;;;8.60;100.00;99148.53;4996144;28;20056;-75
2023/05/02 05:28:07;;;;;;;12.98;9.02;;;;;;;8.58;100.00;99134.38;4997292;28;20418;-74
2023/05/02 05:30:33;;;;;;;15.10;7.90;;;;;;;8.54;100.00;99123.97;5010083;28;20034;-74
2023/05/02 05:32:58;;;;;;;12.88;7.82;;;;;;;8.61;100.00;99140.25;5004244;28;20488;-74
2023/05/02 05:35:24;;;;;;;12.55;7.30;;;;;;;8.76;100.00;99153.78;5026422;28;20423;-75
2023/05/02 05:37:50;;;;;;;13.77;7.00;;;;;;;8.83;100.00;99146.63;5025181;28;20026;-74
2023/05/02 05:40:15;;;;;;;14.43;7.97;;;;;;;8.92;100.00;99148.22;5015832;28;21306;-75
2023/05/02 05:42:41;;;;;;;13.90;7.82;;;;;;;9.03;100.00;99148.78;5006059;28;20053;-74
2023/05/02 05:45:08;;;;;;;13.35;7.22;;;;;;;9.12;100.00;99147.69;5012447;28;20026;-74
2023/05/02 05:47:33;;;;;;;15.52;7.82;;;;;;;9.25;100.00;99155.09;5012962;28;20029;-74
2023/05/02 05:49:59;;;;;;;11.25;6.95;;;;;;;9.30;100.00;99150.00;5004261;28;20072;-74
2023/05/02 05:52:25;;;;;;;10.35;7.10;;;;;;;9.55;100.00;99158.66;5011113;28;20033;-74
2023/05/02 05:54:55;;;;;;;12.02;7.63;;;;;;;9.49;100.00;99140.50;5011560;28;20026;-75
2023/05/02 05:57:20;;;;;;;12.85;8.05;;;;;;;9.58;100.00;99159.09;5008890;28;20118;-76
2023/05/02 05:59:48;;;;;;;15.35;8.48;;;;;;;9.71;100.00;99150.31;4994956;28;20053;-77
2023/05/02 06:02:14;;;;;;;12.93;7.82;;;;;;;9.90;100.00;99148.88;5003273;28;20041;-76
2023/05/02 06:04:39;;;;;;;11.77;7.50;;;;;;;10.38;100.00;99156.50;4995151;28;20052;-73
2023/05/02 06:07:05;;;;;;;9.38;6.60;;;;;;;10.68;100.00;99154.47;5009966;28;20480;-77
2023/05/02 06:09:30;;;;;;;9.30;6.72;;;;;;;10.80;100.00;99161.03;5012554;28;20021;-77
2023/05/02 06:11:55;;;;;;;11.15;6.63;;;;;;;10.95;100.00;99160.91;5006144;28;20064;-77
2023/05/02 06:14:21;;;;;;;12.38;7.47;;;;;;;10.87;100.00;99142.97;5014157;28;20057;-75
2023/05/02 06:16:46;;;;;;;9.70;7.20;;;;;;;10.82;100.00;99139.16;4996304;28;20026;-76
2023/05/02 06:19:12;;;;;;;11.75;7.22;;;;;;;11.17;100.00;99156.28;5007300;28;20030;-77
2023/05/02 06:21:37;;;;;;;9.75;7.00;;;;;;;11.27;100.00;99153.25;5006351;28;20025;-78
2023/05/02 06:24:03;;;;;;;11.48;7.32;;;;;;;11.14;100.00;99159.41;5016479;28;20025;-77
2023/05/02 06:26:28;;;;;;;14.45;7.70;;;;;;;11.22;100.00;99156.53;5014473;28;20393;-76
2023/05/02 06:28:54;;;;;;;11.02;7.13;;;;;;;11.12;100.00;99156.06;5010072;28;20022;-76
2023/05/02 06:31:20;;;;;;;11.95;7.05;;;;;;;11.38;100.00;99166.22;5013563;28;20026;-76
2023/05/02 06:33:45;;;;;;;11.60;7.68;;;;;;;11.37;100.00;99175.34;5017633;28;20022;-76
2023/05/02 06:36:11;;;;;;;11.13;6.53;;;;;;;11.50;100.00;99183.59;5014646;28;20030;-77
2023/05/02 06:38:36;;;;;;;12.35;7.28;;;;;;;11.40;100.00;99185.81;5000850;28;20395;-77
2023/05/02 06:41:01;;;;;;;19.15;7.80;;;;;;;11.34;100.00;99186.59;5002709;28;20076;-75
2023/05/02 06:43:27;;;;;;;10.65;7.15;;;;;;;11.28;100.00;99176.56;5015112;28;20018;-73
2023/05/02 06:45:53;;;;;;;10.38;6.97;;;;;;;11.41;100.00;99188.31;5008275;28;20026;-77
2023/05/02 06:48:20;;;;;;;8.90;6.50;;;;;;;11.26;100.00;99187.59;5006493;28;20094;-72
2023/05/02 06:50:45;;;;;;;11.30;6.97;;;;;;;11.32;100.00;99188.69;5007066;28;20026;-72
2023/05/02 06:53:11;;;;;;;11.52;6.80;;;;;;;11.30;100.00;99190.75;5012397;28;20044;-76
2023/05/02 06:55:36;;;;;;;9.77;6.32;;;;;;;11.50;100.00;99199.84;4994186;28;20116;-74
2023/05/02 06:58:01;;;;;;;14.10;7.28;;;;;;;11.54;100.00;99201.09;5014800;28;20040;-74
2023/05/02 07:00:27;;;;;;;12.90;6.30;;;;;;;11.54;100.00;99209.22;5002585;28;20079;-74
2023/05/02 07:02:52;;;;;;;13.75;6.60;;;;;;;11.53;100.00;99199.44;5015734;28;20046;-74
2023/05/02 07:05:17;;;;;;;10.25;7.15;;;;;;;11.55;100.00;99208.22;5009937;28;20033;-74
2023/05/02 07:07:43;;;;;;;8.70;6.60;;;;;;;11.63;100.00;99199.06;5014376;28;20505;-75
2023/05/02 07:10:10;;;;;;;11.02;7.07;;;;;;;11.61;100.00;99209.28;4979966;28;20022;-75
2023/05/02 07:12:35;;;;;;;10.63;7.07;;;;;;;11.78;100.00;99209.78;5008706;28;20020;-74
2023/05/02 07:15:01;;;;;;;9.02;6.63;;;;;;;12.03;100.00;99221.81;5012682;28;20044;-75
2023/05/02 07:17:26;;;;;;;11.02;7.15;;;;;;;12.12;100.00;99224.34;5013579;28;20426;-75
2023/05/02 07:19:52;;;;;;;9.73;7.05;;;;;;;12.27;100.00;99231.28;4996842;28;20155;-75
2023/05/02 07:22:18;;;;;;;9.48;6.85;;;;;;;12.47;100.00;99220.50;5002228;28;20371;-75
2023/05/02 07:24:43;;;;;;;9.18;6.75;;;;;;;12.47;100.00;99236.78;5013880;28;20036;-74
2023/05/02 07:27:10;;;;;;;9.57;7.13;;;;;;;12.53;100.00;99239.72;5013486;28;20542;-74
2023/05/02 07:29:35;;;;;;;11.15;7.05;;;;;;;12.41;100.00;99237.59;5001449;28;20028;-74
2023/05/02 07:32:02;;;;;;;12.27;7.35;;;;;;;12.80;100.00;99235.16;4986507;28;20021;-77
2023/05/02 07:34:29;;;;;;;13.18;7.25;;;;;;;13.01;100.00;99231.41;4992610;28;20029;-75
2023/05/02 07:36:54;;;;;;;9.98;7.10;;;;;;;13.61;100.00;99228.69;4982977;28;20049;-74
2023/05/02 07:39:20;;;;;;;13.93;7.60;;;;;;;14.00;100.00;99227.72;4995092;28;20058;-71
2023/05/02 07:41:46;;;;;;;11.00;8.13;;;;;;;14.35;100.00;99230.06;4998888;28;20049;-71
2023/05/02 07:44:11;;;;;;;10.82;7.68;;;;;;;14.44;100.00;99221.44;5013511;28;20030;-74
2023/05/02 07:46:36;;;;;;;12.45;7.15;;;;;;;14.77;100.00;99225.03;5004717;28;20084;-75
2023/05/02 07:49:02;;;;;;;12.82;8.32;;;;;;;14.86;100.00;99223.72;4994590;28;20085;-74
2023/05/02 07:51:27;;;;;;;13.30;8.40;;;;;;;15.06;100.00;99232.59;4994369;28;20116;-74
2023/05/02 07:53:54;;;;;;;14.32;9.18;;;;;;;14.97;100.00;99225.72;5009218;28;20033;-75
2023/05/02 07:56:20;;;;;;;11.77;8.75;;;;;;;15.08;100.00;99224.16;5007308;28;20025;-75
2023/05/02 07:58:45;;;;;;;13.82;8.90;;;;;;;15.74;100.00;99228.19;5013331;28;20097;-73
2023/05/02 08:01:11;;;;;;;11.85;8.32;;;;;;;15.81;100.00;99228.94;5003217;28;20463;-74
2023/05/02 08:03:36;;;;;;;12.05;8.52;;;;;;;16.96;100.00;99217.13;5010479;28;20021;-73
2023/05/02 08:06:02;;;;;;;12.50;8.40;;;;;;;17.16;100.00;99226.91;4994893;28;20030;-77
2023/05/02 08:08:28;;;;;;;13.10;8.25;;;;;;;18.40;100.00;99232.97;5008626;28;20025;-75
2023/05/02 08:10:53;;;;;;;9.85;8.00;;;;;;;19.24;100.00;99226.00;4999155;28;20034;-75
2023/05/02 08:13:18;;;;;;;10.68;8.20;;;;;;;19.90;100.00;99228.91;5011841;28;20487;-75
2023/05/02 08:15:44;;;;;;;10.02;8.00;;;;;;;20.19;100.00;99231.50;5009102;28;20079;-74
2023/05/02 08:18:10;;;;;;;10.38;8.27;;;;;;;20.26;100.00;99241.22;5013487;28;20029;-75
2023/05/02 08:20:35;;;;;;;10.05;8.38;;;;;;;20.49;100.00;99237.34;5014737;28;20392;-76
2023/05/02 08:23:01;;;;;;;11.02;8.30;;;;;;;21.75;84.34;99231.63;4997027;28;20026;-76
2023/05/02 08:25:26;;;;;;;13.15;8.75;;;;;;;21.31;80.17;99232.66;5009270;28;20117;-75
2023/05/02 08:27:51;;;;;;;11.40;9.00;;;;;;;20.64;88.43;99244.97;5013815;28;20045;-75
2023/05/02 08:30:17;;;;;;;11.07;8.98;;;;;;;19.92;100.00;99246.81;4992730;28;20053;-75
2023/05/02 08:32:42;;;;;;;10.57;7.90;;;;;;;19.99;100.00;99248.53;5002702;28;20025;-73
2023/05/02 08:35:08;;;;;;;13.48;9.15;;;;;;;18.45;100.00;99254.16;5006574;28;20426;-72
2023/05/02 08:37:33;;;;;;;13.82;10.23;;;;;;;18.16;100.00;99236.88;5006533;28;20029;-71
2023/05/02 08:40:00;;;;;;;12.48;9.88;;;;;;;18.05;100.00;99234.97;5013349;28;20129;-71
2023/05/02 08:42:26;;;;;;;13.20;9.60;;;;;;;18.68;100.00;99249.66;5013687;28;20076;-71
2023/05/02 08:44:51;;;;;;;13.13;9.48;;;;;;;19.60;100.00;99254.84;5013125;28;20399;-75
2023/05/02 08:47:17;;;;;;;12.70;9.55;;;;;;;19.93;100.00;99244.88;5010738;28;20037;-75
2023/05/02 08:49:44;;;;;;;12.55;9.18;;;;;;;19.27;100.00;99263.91;5015792;28;20611;-77
2023/05/02 08:52:11;;;;;;;18.25;10.68;;;;;;;18.61;100.00;99258.84;4997453;28;20034;-77
2023/05/02 08:54:37;;;;;;;15.48;10.32;;;;;;;18.19;100.00;99261.03;5010167;28;20025;-77
2023/05/02 08:57:04;;;;;;;16.13;10.82;;;;;;;17.99;100.00;99266.06;4994513;28;20022;-75
2023/05/02 08:59:30;;;;;;;16.58;11.38;;;;;;;18.24;100.00;99268.53;5022833;28;20053;-77
2023/05/02 09:02:09;;;;;;;15.10;9.23;;;;;;;18.77;100.00;99273.72;5003524;28;20037;-76
2023/05/02 09:04:40;;;;;;;13.48;9.90;;;;;;;19.11;100.00;99275.69;5001204;28;20055;-75
2023/05/02 09:07:06;;;;;;;15.00;10.70;;;;;;;19.54;100.00;99269.53;5013830;28;20030;-74
2023/05/02 09:09:33;;;;;;;12.73;10.15;;;;;;;19.67;99.93;99271.16;5005939;28;20034;-71
2023/05/02 09:11:58;;;;;;;10.95;8.57;;;;;;;20.48;95.81;99257.66;5008854;28;20032;-73
2023/05/02 09:14:23;;;;;;;14.63;9.65;;;;;;;21.63;80.26;99281.38;5009058;28;20411;-71
2023/05/02 09:16:49;;;;;;;13.95;10.70;;;;;;;20.40;90.92;99282.84;5002881;28;20030;-71
2023/05/02 09:19:24;;;;;;;14.30;10.57;;;;;;;21.14;83.02;99278.72;5010232;28;20029;-72
2023/05/02 09:21:49;;;;;;;13.98;10.18;;;;;;;22.67;74.28;99276.16;5011106;28;20026;-72
2023/05/02 09:24:20;;;;;;;13.15;9.93;;;;;;;22.99;67.87;99276.00;5035922;22;20019;-71
2023/05/02 09:27:03;;;;;;;14.32;9.65;;;;;;;23.40;65.19;99252.00;5031545;28;20021;-72
2023/05/02 09:29:34;;;;;;;13.23;9.93;;;;;;;24.18;61.97;99272.91;5036936;28;20025;-71
2023/05/02 09:31:59;;;;;;;10.20;8.13;;;;;;;27.05;54.93;99264.84;5013061;28;20022;-72
2023/05/02 09:34:25;;;;;;;11.05;9.18;;;;;;;28.85;48.41;99268.78;5021398;28;20451;-72
2023/05/02 09:36:52;;;;;;;11.70;9.10;;;;;;;28.87;45.90;99251.72;5030877;28;20107;-72
2023/05/02 09:39:22;;;;;;;10.15;7.80;;;;;;;29.46;44.39;99252.56;5048350;28;20672;-72
2023/05/02 09:41:48;;;;;;;11.48;8.95;;;;;;;29.16;46.44;99255.00;5015224;28;20021;-72
2023/05/02 09:44:17;;;;;;;11.07;8.63;;;;;;;30.14;44.60;99247.72;5047713;28;20021;-72
2023/05/02 09:46:47;;;;;;;11.82;8.38;;;;;;;30.56;43.88;99260.19;5032747;28;20060;-71
2023/05/02 09:49:17;;;;;;;11.02;8.50;;;;;;;31.42;42.16;99227.88;5027343;28;20027;-72
2023/05/02 09:51:43;;;;;;;10.48;8.25;;;;;;;32.01;40.02;99238.41;5050632;28;20114;-72
2023/05/02 09:54:09;;;;;;;9.90;8.82;;;;;;;30.01;40.89;99245.84;5056260;28;20127;-72
2023/05/02 09:56:55;;;;;;;10.52;8.10;;;;;;;30.74;42.32;99258.25;5047573;28;20037;-72
2023/05/02 09:59:21;;;;;;;12.70;8.65;;;;;;;29.97;40.93;99258.78;5048656;28;20024;-72
2023/05/02 10:01:55;;;;;;;7.95;5.43;;;;;;;32.63;40.73;99258.56;5037143;28;20032;-72
2023/05/02 10:04:20;;;;;;;8.13;7.32;;;;;;;33.41;38.30;99234.72;5051096;28;20020;-72
2023/05/02 10:06:47;;;;;;;9.40;8.07;;;;;;;34.45;35.54;99253.16;5047669;28;20387;-72
2023/05/02 10:09:14;;;;;;;10.02;7.15;;;;;;;35.46;33.58;99259.91;5041365;28;20033;-72
2023/05/02 10:11:43;;;;;;;8.68;5.97;;;;;;;35.87;34.38;99243.72;5046310;28;20094;-72
2023/05/02 10:14:09;;;;;;;9.23;8.32;;;;;;;34.30;33.65;99251.91;5032895;28;20513;-72
2023/05/02 10:16:37;;;;;;;6.80;6.10;;;;;;;36.14;33.99;99247.69;5024501;28;20029;-72
2023/05/02 10:19:08;;;;;;;10.45;7.80;;;;;;;31.65;36.16;99252.84;5034118;28;20087;-72
2023/05/02 10:21:35;;;;;;;8.15;7.15;;;;;;;30.83;38.99;99255.47;5047610;28;20018;-72
2023/05/02 10:24:04;;;;;;;9.77;7.53;;;;;;;30.01;40.33;99262.59;5050184;28;20104;-72
2023/05/02 10:26:30;;;;;;;12.82;10.30;;;;;;;30.80;38.84;99242.16;5049367;28;20158;-72
2023/05/02 10:28:56;;;;;;;10.73;7.50;;;;;;;31.92;37.73;99251.63;5039760;28;20398;-72
2023/05/02 10:31:22;;;;;;;12.90;10.50;;;;;;;29.81;38.97;99262.00;5027230;28;20030;-72
2023/05/02 10:33:51;;;;;;;11.63;9.02;;;;;;;31.02;37.39;99238.38;5044162;28;20013;-72
2023/05/02 10:36:21;;;;;;;12.90;9.68;;;;;;;31.36;37.22;99251.56;5036137;28;20482;-71
2023/05/02 10:38:47;;;;;;;12.80;10.35;;;;;;;27.23;42.01;99227.09;5048887;28;20508;-71
2023/05/02 10:41:20;;;;;;;13.07;9.75;;;;;;;25.01;46.75;99229.06;5048806;28;20016;-72
2023/05/02 10:43:47;;;;;;;10.13;9.02;;;;;;;24.87;48.83;99231.66;5048853;28;20071;-72
2023/05/02 10:46:32;;;;;;;9.50;7.65;;;;;;;25.04;50.18;99245.91;5050749;28;20031;-72
2023/05/02 10:49:07;;;;;;;10.88;8.48;;;;;;;25.80;49.13;99246.38;5048189;28;20166;-71
2023/05/02 10:51:33;;;;;;;10.73;8.30;;;;;;;26.11;48.09;99251.63;5033859;28;20028;-72
2023/05/02 10:54:20;;;;;;;11.57;9.10;;;;;;;24.95;47.27;99246.81;5043945;28;20472;-71
2023/05/02 10:57:03;;;;;;;9.00;7.68;;;;;;;25.00;49.18;99244.84;5045336;28;20480;-72
2023/05/02 10:59:30;;;;;;;10.15;8.38;;;;;;;24.57;49.90;99230.72;5046020;28;20057;-71
2023/05/02 11:01:57;;;;;;;14.85;10.40;;;;;;;24.24;52.70;99224.75;5031123;28;20031;-71
2023/05/02 11:04:22;;;;;;;14.70;10.60;;;;;;;23.48;53.71;99236.81;5047510;28;20049;-71
2023/05/02 11:07:01;;;;;;;12.73;9.95;;;;;;;25.98;49.91;99240.13;5051949;28;20060;-71
2023/05/02 11:09:26;;;;;;;10.38;8.68;;;;;;;29.65;44.33;99233.69;5039786;28;20398;-75
2023/05/02 11:11:53;;;;;;;15.57;9.80;;;;;;;29.51;42.60;99226.53;5033260;28;20111;-74
2023/05/02 11:14:24;;;;;;;13.85;9.00;;;;;;;29.92;39.72;99229.06;5044120;28;20494;-79
2023/05/02 11:17:05;;;;;;;12.13;9.75;;;;;;;29.46;41.71;99230.28;5040281;28;20029;-79
2023/05/02 11:19:36;;;;;;;12.07;9.55;;;;;;;29.15;40.06;99228.25;5057332;28;20025;-73
2023/05/02 11:22:16;;;;;;;10.85;8.77;;;;;;;27.14;43.98;99232.47;5039575;28;20033;-76
2023/05/02 11:24:43;;;;;;;12.73;10.05;;;;;;;26.43;46.64;99226.81;5052490;28;20032;-76
2023/05/02 11:27:37;;;;;;;13.15;10.57;;;;;;;27.50;45.85;99234.69;5049738;28;20033;-79
2023/05/02 11:30:12;;;;;;;11.73;9.00;;;;;;;28.85;43.16;99188.00;5033587;28;20079;-73
2023/05/02 11:32:44;;;;;;;13.15;10.50;;;;;;;29.91;41.39;99225.44;5038204;28;20623;-74
2023/05/02 11:35:18;;;;;;;13.80;11.02;;;;;;;28.93;41.78;99223.47;5033951;28;20108;-75